createdAt,value
2023-02-14T00:03:34.551Z,21.02
2023-02-14T00:06:21.631Z,18.55
2023-02-14T00:09:12.241Z,22.42
2023-02-14T00:11:59.420Z,24.67
2023-02-14T00:15:05.178Z,20.45
2023-02-14T00:17:54.787Z,39.22
2023-02-14T00:20:41.945Z,34.97
2023-02-14T00:23:29.176Z,20.42
2023-02-14T00:26:16.232Z,20.73
2023-02-14T00:29:03.328Z,20.48
2023-02-14T00:31:50.935Z,19.77
2023-02-14T00:34:38.191Z,19.25
2023-02-14T00:37:25.514Z,17.13
2023-02-14T00:40:13.125Z,18.33
2023-02-14T00:43:00.181Z,17.60
2023-02-14T00:45:47.264Z,17.08
2023-02-14T00:48:34.360Z,16.63
2023-02-14T00:51:21.871Z,16.02
2023-02-14T00:54:08.975Z,16.60
2023-02-14T00:56:56.014Z,16.27
2023-02-14T00:59:43.080Z,16.33
2023-02-14T01:02:30.247Z,16.23
2023-02-14T01:05:17.504Z,18.15
2023-02-14T01:08:05.255Z,18.13
2023-02-14T01:10:52.567Z,17.40
2023-02-14T01:13:40.828Z,18.02
2023-02-14T01:16:29.588Z,18.17
2023-02-14T01:19:16.806Z,18.08
2023-02-14T01:22:03.894Z,17.95
2023-02-14T01:24:50.894Z,17.50
2023-02-14T01:27:38.005Z,21.80
2023-02-14T01:30:25.583Z,24.08
2023-02-14T01:33:12.790Z,22.42
2023-02-14T01:36:00.777Z,23.60
2023-02-14T01:38:50.900Z,24.50
2023-02-14T01:41:39.900Z,25.98
2023-02-14T01:44:26.968Z,25.75
2023-02-14T01:47:14.721Z,25.98
2023-02-14T01:50:22.644Z,23.58
2023-02-14T01:53:16.260Z,24.58
2023-02-14T01:56:08.477Z,25.70
2023-02-14T01:58:59.342Z,24.52
2023-02-14T02:01:48.830Z,25.73
2023-02-14T02:04:39.241Z,18.33
2023-02-14T02:07:29.395Z,24.13
2023-02-14T02:10:16.633Z,23.23
2023-02-14T02:13:07.255Z,23.80
2023-02-14T02:16:07.995Z,23.35
2023-02-14T02:19:27.461Z,23.10
2023-02-14T02:22:23.656Z,24.25
2023-02-14T02:25:40.434Z,23.60
2023-02-14T02:29:01.205Z,23.00
2023-02-14T02:32:17.377Z,22.05
2023-02-14T02:35:17.973Z,23.15
2023-02-14T02:38:33.817Z,23.50
2023-02-14T02:41:48.284Z,23.35
2023-02-14T02:44:44.212Z,23.27
2023-02-14T02:47:40.475Z,23.58
2023-02-14T02:50:55.597Z,22.98
2023-02-14T02:54:03.827Z,23.52
2023-02-14T02:56:56.168Z,23.27
2023-02-14T02:59:45.976Z,23.33
2023-02-14T03:03:01.270Z,22.52
2023-02-14T03:05:48.562Z,22.38
2023-02-14T03:08:35.656Z,22.65
2023-02-14T03:11:24.817Z,22.85
2023-02-14T03:14:21.444Z,23.10
2023-02-14T03:17:25.021Z,22.73
2023-02-14T03:20:23.102Z,23.98
2023-02-14T03:23:25.149Z,24.20
2023-02-14T03:26:27.494Z,24.45
2023-02-14T03:29:20.720Z,23.58
2023-02-14T03:32:07.881Z,24.42
2023-02-14T03:35:03.576Z,23.13
2023-02-14T03:38:13.605Z,24.13
2023-02-14T03:41:09.504Z,24.55
2023-02-14T03:44:01.133Z,21.77
2023-02-14T03:46:54.424Z,25.58
2023-02-14T03:49:46.680Z,25.92
2023-02-14T03:52:36.243Z,23.88
2023-02-14T03:55:46.872Z,25.60
2023-02-14T03:58:43.877Z,24.85
2023-02-14T04:01:40.213Z,26.20
2023-02-14T04:04:32.684Z,25.92
2023-02-14T04:07:22.392Z,26.42
2023-02-14T04:10:09.970Z,23.58
2023-02-14T04:12:57.015Z,23.80
2023-02-14T04:15:44.636Z,24.23
2023-02-14T04:18:50.239Z,23.50
2023-02-14T04:21:37.324Z,23.00
2023-02-14T04:24:24.315Z,25.02
2023-02-14T04:27:11.735Z,23.23
2023-02-14T04:29:58.912Z,22.15
2023-02-14T04:32:46.172Z,22.40
2023-02-14T04:35:33.213Z,20.55
2023-02-14T04:38:20.388Z,22.23
2023-02-14T04:41:07.429Z,20.85
2023-02-14T04:43:54.529Z,21.63
2023-02-14T04:46:41.734Z,23.95
2023-02-14T04:49:28.864Z,24.00
2023-02-14T04:52:16.001Z,23.40
2023-02-14T04:55:04.572Z,23.73
2023-02-14T04:57:52.252Z,23.48
2023-02-14T05:00:39.366Z,23.15
2023-02-14T05:03:26.486Z,23.92
2023-02-14T05:06:13.567Z,22.85
2023-02-14T05:09:01.430Z,22.38
2023-02-14T05:11:48.507Z,22.02
2023-02-14T05:14:35.589Z,22.55
2023-02-14T05:17:22.677Z,21.45
2023-02-14T05:20:10.212Z,22.60
2023-02-14T05:23:00.152Z,21.23
2023-02-14T05:25:52.040Z,21.52
2023-02-14T05:28:41.181Z,21.88
2023-02-14T05:31:28.326Z,21.52
2023-02-14T05:34:15.590Z,20.27
2023-02-14T05:37:03.746Z,20.67
2023-02-14T05:39:50.798Z,20.92
2023-02-14T05:42:37.833Z,19.83
2023-02-14T05:45:25.020Z,20.85
2023-02-14T05:48:12.245Z,20.40
2023-02-14T05:51:07.124Z,22.10
2023-02-14T05:53:54.134Z,19.85
2023-02-14T05:56:41.231Z,20.27
2023-02-14T05:59:28.307Z,20.13
2023-02-14T06:02:16.136Z,20.30
2023-02-14T06:05:03.330Z,19.92
2023-02-14T06:07:50.993Z,18.52
2023-02-14T06:10:37.988Z,19.80
2023-02-14T06:13:25.171Z,19.40
2023-02-14T06:16:12.265Z,18.85
2023-02-14T06:18:59.395Z,20.25
2023-02-14T06:21:47.005Z,20.63
2023-02-14T06:24:34.109Z,20.30
2023-02-14T06:27:21.134Z,19.52
2023-02-14T06:30:09.413Z,20.17
2023-02-14T06:32:56.585Z,20.77
2023-02-14T06:35:43.703Z,19.55
2023-02-14T06:38:30.719Z,19.58
2023-02-14T06:41:18.270Z,21.58
2023-02-14T06:44:05.371Z,20.67
2023-02-14T06:46:52.485Z,20.52
2023-02-14T06:49:39.899Z,20.98
2023-02-14T06:52:26.981Z,20.80
2023-02-14T06:55:14.050Z,21.30
2023-02-14T06:58:01.174Z,21.13
2023-02-14T07:00:48.471Z,20.58
2023-02-14T07:03:35.522Z,20.98
2023-02-14T07:06:22.710Z,21.00
2023-02-14T07:09:09.899Z,20.65
2023-02-14T07:11:56.934Z,19.88
2023-02-14T07:14:44.074Z,21.65
2023-02-14T07:17:31.119Z,22.10
2023-02-14T07:20:19.436Z,21.42
2023-02-14T07:23:06.572Z,21.40
2023-02-14T07:25:55.576Z,22.27
2023-02-14T07:28:44.890Z,20.25
2023-02-14T07:31:32.486Z,21.23
2023-02-14T07:34:19.611Z,21.60
2023-02-14T07:37:06.783Z,21.50
2023-02-14T07:39:53.898Z,21.15
2023-02-14T07:42:41.120Z,21.60
2023-02-14T07:45:28.266Z,20.92
2023-02-14T07:48:15.364Z,22.58
2023-02-14T07:51:03.412Z,22.13
2023-02-14T07:53:50.666Z,21.30
2023-02-14T07:56:37.788Z,21.90
2023-02-14T07:59:26.074Z,21.40
2023-02-14T08:02:13.347Z,20.83
2023-02-14T08:05:00.581Z,22.00
2023-02-14T08:07:47.980Z,21.85
2023-02-14T08:10:35.151Z,22.08
2023-02-14T08:13:22.629Z,22.75
2023-02-14T08:16:11.867Z,22.17
2023-02-14T08:18:59.067Z,22.87
2023-02-14T08:21:46.252Z,21.00
2023-02-14T08:24:33.471Z,22.38
2023-02-14T08:27:20.660Z,21.60
2023-02-14T08:30:09.924Z,20.73
2023-02-14T08:33:01.161Z,20.93
2023-02-14T08:35:48.272Z,19.80
2023-02-14T08:38:56.299Z,20.15
2023-02-14T08:41:51.864Z,18.75
2023-02-14T08:45:13.292Z,18.23
2023-02-14T08:48:44.734Z,18.00
2023-02-14T09:18:57.983Z,17.83
2023-02-14T09:21:58.409Z,18.63
2023-02-14T09:25:00.920Z,17.17
2023-02-14T09:28:07.583Z,17.88
2023-02-14T09:32:02.656Z,16.15
2023-02-14T09:35:32.731Z,16.27
2023-02-14T09:38:47.380Z,17.08
2023-02-14T09:42:07.073Z,17.52
2023-02-14T10:07:37.112Z,15.45
2023-02-14T10:10:33.732Z,16.77
2023-02-14T10:14:26.573Z,15.35
2023-02-14T10:17:50.795Z,16.35
2023-02-14T10:21:05.457Z,15.18
2023-02-14T10:24:04.694Z,15.18
2023-02-14T10:26:57.854Z,15.38
2023-02-14T10:29:45.286Z,14.60
2023-02-14T10:32:47.231Z,15.10
2023-02-14T10:35:50.570Z,16.98
2023-02-14T10:38:37.697Z,14.85
2023-02-14T10:41:30.831Z,15.48
2023-02-14T10:44:30.872Z,14.20
2023-02-14T10:47:24.408Z,14.07
2023-02-14T10:50:21.038Z,13.00
2023-02-14T10:53:27.247Z,13.73
2023-02-14T10:56:26.012Z,14.20
2023-02-14T10:59:27.429Z,14.38
2023-02-14T11:02:17.252Z,13.55
2023-02-14T11:05:05.371Z,14.65
2023-02-14T11:07:52.691Z,14.55
2023-02-14T11:10:39.825Z,15.20
2023-02-14T11:13:33.970Z,15.15
2023-02-14T11:16:33.411Z,15.07
2023-02-14T11:19:20.595Z,14.27
2023-02-14T11:22:10.389Z,14.43
2023-02-14T11:25:18.608Z,14.85
2023-02-14T11:28:14.067Z,14.63
2023-02-14T11:31:02.023Z,14.10
2023-02-14T11:33:51.520Z,13.50
2023-02-14T11:36:43.044Z,14.95
2023-02-14T11:39:31.927Z,14.07
2023-02-14T11:42:42.798Z,13.63
2023-02-14T11:45:36.835Z,13.45
2023-02-14T11:48:41.969Z,13.13
2023-02-14T11:51:39.238Z,13.52
2023-02-14T11:54:30.938Z,15.07
2023-02-14T11:57:28.032Z,13.82
2023-02-14T12:00:18.680Z,13.75
2023-02-14T12:03:07.192Z,15.32
2023-02-14T12:06:00.635Z,14.13
2023-02-14T12:08:47.851Z,13.48
2023-02-14T12:11:35.182Z,14.25
2023-02-14T12:14:24.828Z,15.68
2023-02-14T12:17:12.058Z,15.02
2023-02-14T12:20:15.649Z,14.60
2023-02-14T12:23:09.894Z,14.35
2023-02-14T12:26:03.987Z,15.10
2023-02-14T12:29:14.424Z,15.23
2023-02-14T12:32:20.579Z,14.65
2023-02-14T12:35:36.838Z,13.82
2023-02-14T12:39:12.199Z,14.00
2023-02-14T12:42:04.985Z,14.05
2023-02-14T12:45:11.173Z,14.18
2023-02-14T12:48:16.735Z,15.50
2023-02-14T12:51:34.775Z,15.48
2023-02-14T12:54:45.068Z,14.82
2023-02-14T13:00:25.019Z,15.50
2023-02-14T13:03:30.627Z,16.48
2023-02-14T13:06:26.692Z,16.67
2023-02-14T13:09:32.213Z,16.83
2023-02-14T13:12:35.504Z,17.45
2023-02-14T13:15:52.994Z,17.58
2023-02-14T13:19:12.633Z,17.17
2023-02-14T13:22:01.404Z,17.33
2023-02-14T13:24:52.210Z,16.52
2023-02-14T13:30:24.520Z,17.65
2023-02-14T13:33:24.976Z,16.27
2023-02-14T13:36:13.552Z,16.80
2023-02-14T13:39:01.460Z,15.82
2023-02-14T13:41:48.751Z,16.05
2023-02-14T13:44:38.954Z,18.13
2023-02-14T13:50:21.650Z,16.98
2023-02-14T13:53:13.744Z,18.17
2023-02-14T13:56:03.795Z,17.67
2023-02-14T14:01:50.317Z,17.52
2023-02-14T14:04:38.284Z,18.33
2023-02-14T14:07:32.312Z,18.67
2023-02-14T14:10:44.922Z,18.38
2023-02-14T14:13:41.200Z,19.20
2023-02-14T14:16:33.626Z,17.90
2023-02-14T14:19:20.767Z,18.95
2023-02-14T14:22:18.045Z,18.52
2023-02-14T14:25:08.891Z,17.67
2023-02-14T14:27:55.974Z,19.30
2023-02-14T14:30:44.888Z,18.80
2023-02-14T14:33:34.805Z,19.45
2023-02-14T14:36:24.076Z,20.77
2023-02-14T14:39:11.370Z,19.47
2023-02-14T14:42:15.547Z,20.48
2023-02-14T14:45:07.127Z,20.23
2023-02-14T14:47:57.949Z,20.35
2023-02-14T14:50:47.255Z,20.13
2023-02-14T14:53:42.104Z,20.57
2023-02-14T14:56:34.453Z,20.08
2023-02-14T14:59:40.988Z,20.65
2023-02-14T15:02:30.076Z,19.65
2023-02-14T15:05:26.134Z,21.42
2023-02-14T15:08:25.607Z,20.52
2023-02-14T15:11:34.693Z,22.15
2023-02-14T15:14:24.488Z,22.85
2023-02-14T15:17:25.605Z,21.85
2023-02-14T15:20:22.116Z,21.50
2023-02-14T15:23:18.210Z,21.33
2023-02-14T15:26:06.362Z,21.25
2023-02-14T15:29:02.633Z,22.67
2023-02-14T15:31:50.527Z,22.08
2023-02-14T15:34:37.891Z,23.35
2023-02-14T15:37:26.721Z,20.45
2023-02-14T15:40:23.437Z,23.08
2023-02-14T15:43:16.466Z,21.65
2023-02-14T15:46:28.228Z,21.55
2023-02-14T15:49:21.501Z,21.70
2023-02-14T15:52:14.258Z,22.27
2023-02-14T15:55:01.376Z,21.50
2023-02-14T15:57:55.692Z,22.23
2023-02-14T16:00:44.976Z,22.02
2023-02-14T16:03:38.913Z,23.45
2023-02-14T16:06:45.307Z,24.58
2023-02-14T16:09:36.639Z,24.60
2023-02-14T16:12:29.767Z,23.00
2023-02-14T16:15:23.127Z,23.33
2023-02-14T16:18:39.880Z,23.50
2023-02-14T16:21:31.500Z,21.33
2023-02-14T16:24:19.901Z,21.73
2023-02-14T16:27:07.242Z,22.65
2023-02-14T16:29:54.541Z,21.55
2023-02-14T16:32:42.273Z,22.08
2023-02-14T16:35:30.749Z,23.42
2023-02-14T16:38:19.905Z,24.05
2023-02-14T16:41:07.381Z,22.25
2023-02-14T16:43:56.702Z,23.92
2023-02-14T16:46:46.079Z,23.45
2023-02-14T16:49:34.600Z,24.45
2023-02-14T16:52:27.181Z,23.88
2023-02-14T16:55:16.925Z,23.52
2023-02-14T16:58:04.312Z,24.83
2023-02-14T17:00:51.858Z,24.33
2023-02-14T17:03:40.194Z,24.08
2023-02-14T17:06:29.273Z,23.42
2023-02-14T17:09:27.753Z,23.73
2023-02-14T17:12:21.946Z,24.52
2023-02-14T17:15:16.943Z,25.55
2023-02-14T17:18:10.253Z,24.90
2023-02-14T17:20:59.895Z,24.92
2023-02-14T17:23:47.970Z,24.40
2023-02-14T17:26:38.661Z,24.58
2023-02-14T17:29:26.111Z,25.08
2023-02-14T17:32:14.519Z,25.15
2023-02-14T17:35:04.059Z,25.45
2023-02-14T17:37:51.832Z,23.35
2023-02-14T17:40:39.230Z,23.60
2023-02-14T17:43:27.101Z,37.33
2023-02-14T17:46:16.408Z,25.02
2023-02-14T17:49:04.043Z,25.75
2023-02-14T17:51:51.765Z,23.83
2023-02-14T17:54:40.299Z,23.85
2023-02-14T17:57:28.003Z,22.83
2023-02-14T18:00:17.140Z,26.17
2023-02-14T18:03:05.067Z,24.88
2023-02-14T18:05:53.098Z,24.40
2023-02-14T18:08:47.275Z,25.20
2023-02-14T18:11:38.540Z,26.70
2023-02-14T18:14:26.221Z,25.23
2023-02-14T18:17:14.404Z,25.77
2023-02-14T18:20:02.758Z,24.63
2023-02-14T18:22:51.004Z,23.67
2023-02-14T18:25:39.221Z,25.38
2023-02-14T18:28:29.807Z,23.63
2023-02-14T18:31:19.142Z,23.67
2023-02-14T18:34:08.567Z,18.50
2023-02-14T18:36:57.835Z,26.00
2023-02-14T18:39:46.161Z,26.33
2023-02-14T18:42:34.345Z,24.92
2023-02-14T18:45:23.670Z,25.15
2023-02-14T18:48:11.634Z,26.05
2023-02-14T18:51:17.230Z,25.90
2023-02-14T18:54:07.304Z,24.50
2023-02-14T18:59:43.882Z,24.55
2023-02-14T19:02:33.702Z,24.63
2023-02-14T19:05:21.813Z,24.77
2023-02-14T19:08:10.405Z,24.25
2023-02-14T19:11:00.586Z,25.65
2023-02-14T19:13:52.241Z,25.33
2023-02-14T19:16:50.541Z,24.50
2023-02-14T19:19:40.834Z,25.13
2023-02-14T19:22:29.049Z,26.40
2023-02-14T19:25:17.254Z,24.70
2023-02-14T19:28:07.697Z,24.73
2023-02-14T19:30:59.724Z,26.88
2023-02-14T19:33:49.020Z,27.55
2023-02-14T19:36:38.488Z,26.08
2023-02-14T19:39:30.312Z,25.88
2023-02-14T19:42:18.867Z,26.30
2023-02-14T19:45:08.331Z,26.90
2023-02-14T19:48:00.201Z,27.95
2023-02-14T19:50:53.325Z,26.77
2023-02-14T19:53:41.541Z,29.23
2023-02-14T19:56:33.575Z,26.50
2023-02-14T19:59:29.199Z,27.25
2023-02-14T20:02:21.303Z,27.60
2023-02-14T20:05:09.338Z,28.27
2023-02-14T20:08:00.532Z,27.38
2023-02-14T20:10:52.116Z,28.23
2023-02-14T20:13:40.713Z,27.15
2023-02-14T20:16:36.875Z,27.98
2023-02-14T20:19:32.889Z,27.00
2023-02-14T20:22:24.251Z,27.80
2023-02-14T20:25:13.038Z,26.65
2023-02-14T20:28:16.191Z,27.90
2023-02-14T20:31:11.636Z,27.70
2023-02-14T20:34:14.139Z,26.30
2023-02-14T20:37:05.482Z,27.02
2023-02-14T20:39:53.785Z,27.60
2023-02-14T20:42:53.507Z,25.45
2023-02-14T20:45:44.672Z,28.02
2023-02-14T20:48:42.033Z,27.08
2023-02-14T20:51:39.142Z,27.67
2023-02-14T20:54:30.198Z,27.20
2023-02-14T20:57:18.439Z,26.70
2023-02-14T21:00:23.812Z,27.73
2023-02-14T21:03:12.446Z,30.50
2023-02-14T21:06:01.702Z,29.05
2023-02-14T21:08:50.663Z,30.70
2023-02-14T21:11:39.406Z,29.88
2023-02-14T21:14:29.200Z,29.42
2023-02-14T21:17:17.958Z,28.80
2023-02-14T21:20:11.849Z,27.20
2023-02-14T21:23:00.943Z,26.15
2023-02-14T21:25:48.895Z,28.58
2023-02-14T21:28:38.431Z,29.60
2023-02-14T21:31:26.795Z,28.20
2023-02-14T21:34:17.066Z,27.83
2023-02-14T21:39:54.789Z,27.98
2023-02-14T21:45:52.692Z,24.35
2023-02-14T21:48:59.715Z,27.65
2023-02-14T21:51:49.228Z,28.90
2023-02-14T21:54:37.124Z,28.40
2023-02-14T21:57:25.041Z,29.27
2023-02-14T22:00:25.812Z,27.40
2023-02-14T22:03:13.259Z,27.02
2023-02-14T22:06:05.531Z,27.17
2023-02-14T22:08:58.870Z,29.23
2023-02-14T22:11:49.626Z,30.15
2023-02-14T22:14:36.905Z,29.42
2023-02-14T22:17:27.700Z,28.25
2023-02-14T22:20:15.232Z,26.48
2023-02-14T22:23:02.438Z,28.20
2023-02-14T22:25:49.643Z,27.08
2023-02-14T22:28:37.269Z,27.33
2023-02-14T22:31:28.895Z,27.63
2023-02-14T22:34:19.934Z,26.77
2023-02-14T22:37:07.154Z,25.38
2023-02-14T22:39:54.522Z,27.85
2023-02-14T22:42:41.646Z,25.00
2023-02-14T22:45:28.769Z,27.27
2023-02-14T22:48:23.578Z,27.08
2023-02-14T22:51:30.957Z,26.48
2023-02-14T22:54:18.165Z,26.38
2023-02-14T22:57:05.350Z,28.80
2023-02-14T22:59:54.497Z,26.98
2023-02-14T23:02:44.611Z,26.73
2023-02-14T23:05:34.473Z,27.00
2023-02-14T23:08:21.742Z,27.83
2023-02-14T23:11:20.854Z,26.10
2023-02-14T23:14:27.578Z,27.92
2023-02-14T23:17:18.841Z,25.92
2023-02-14T23:20:25.372Z,27.55
2023-02-14T23:23:15.005Z,25.95
2023-02-14T23:26:02.414Z,26.38
2023-02-14T23:28:49.722Z,25.13
2023-02-14T23:31:37.223Z,26.73
2023-02-14T23:34:29.432Z,27.20
2023-02-14T23:37:16.641Z,28.08
2023-02-14T23:40:04.215Z,27.38
2023-02-14T23:42:55.017Z,27.15
2023-02-14T23:45:42.130Z,25.30
2023-02-14T23:48:29.300Z,27.75
2023-02-14T23:51:16.456Z,25.92
2023-02-14T23:54:04.263Z,27.38
2023-02-14T23:56:52.562Z,25.80
2023-02-14T23:59:39.697Z,25.70
